Langara, Canada
Current Conditions -  °F | °C
As of 12:00 PM on Sunday 21 Dec 2014 (Local Time) from CZMT Reporting Station
Broken Clouds Broken Clouds  
Wind Chill: 36°   Ceiling: 3000
Heat Index: 41°   Visibility: 15mi
Dew Point: 39°   Wind: 8mph
Humidity: 93%   Direction: 160°SSE
Pressure: 29.52"   Gusts: NA
Location:  54.23°N, 133°W
Report Text: CZMT 212000Z 16007KT 15SM SCT015 BKN030 05/04 A2952 RMK SC4SC3 SH S SLP995
Loading
Personal Weather Stations






























Interactive Weather Map New forecast layout! Learn more

10-Day Weather Forecast

Advertisements
Track Severe Weather on mobile